createdAt,value
2023-04-18T00:00:05.845Z,101273.41
2023-04-18T00:01:10.187Z,101265.09
2023-04-18T00:02:17.345Z,101264.91
2023-04-18T00:03:22.125Z,101262.47
2023-04-18T00:04:26.050Z,101266.22
2023-04-18T00:05:31.205Z,101257.16
2023-04-18T00:06:33.557Z,101254.09
2023-04-18T00:07:37.289Z,101259.53
2023-04-18T00:08:39.712Z,101254.53
2023-04-18T00:09:44.696Z,101250.88
2023-04-18T00:10:47.853Z,101247.53
2023-04-18T00:11:51.246Z,101255.72
2023-04-18T00:12:53.683Z,101250.28
2023-04-18T00:13:59.825Z,101248.84
2023-04-18T00:15:02.985Z,101243.91
2023-04-18T00:16:08.170Z,101237.94
2023-04-18T00:17:10.821Z,101242.34
2023-04-18T00:18:17.255Z,101245.72
2023-04-18T00:19:20.272Z,101234.41
2023-04-18T00:20:26.176Z,101253.06
2023-04-18T00:21:30.273Z,101238.66
2023-04-18T00:22:33.967Z,101243.56
2023-04-18T00:23:36.503Z,101232.31
2023-04-18T00:24:39.980Z,101241.69
2023-04-18T00:25:42.588Z,101241.22
2023-04-18T00:26:46.036Z,101233.69
2023-04-18T00:27:48.755Z,101238.78
2023-04-18T00:28:52.785Z,101235.38
2023-04-18T00:29:56.734Z,101235.44
2023-04-18T00:31:01.865Z,101236.66
2023-04-18T00:32:05.558Z,101229.03
2023-04-18T00:33:10.426Z,101235.97
2023-04-18T00:34:13.120Z,101237.00
2023-04-18T00:35:17.358Z,101238.78
2023-04-18T00:36:19.931Z,101238.94
2023-04-18T00:37:23.673Z,101240.84
2023-04-18T00:38:26.239Z,101236.78
2023-04-18T00:39:29.751Z,101236.28
2023-04-18T00:40:32.160Z,101229.03
2023-04-18T00:41:35.891Z,101236.28
2023-04-18T00:42:38.558Z,101237.16
2023-04-18T00:43:42.068Z,101229.56
2023-04-18T00:44:44.402Z,101229.88
2023-04-18T00:45:50.094Z,101232.00
2023-04-18T00:46:52.679Z,101228.69
2023-04-18T00:47:57.482Z,101232.53
2023-04-18T00:49:00.312Z,101231.50
2023-04-18T00:50:04.236Z,101231.75
2023-04-18T00:51:07.789Z,101224.97
2023-04-18T00:52:11.948Z,101226.97
2023-04-18T00:53:15.727Z,101225.97
2023-04-18T00:54:20.339Z,101219.50
2023-04-18T00:55:24.274Z,101220.00
2023-04-18T00:56:27.887Z,101217.97
2023-04-18T00:57:31.178Z,101218.28
2023-04-18T00:58:34.965Z,101218.91
2023-04-18T00:59:38.248Z,101214.44
2023-04-18T01:00:42.770Z,101215.13
2023-04-18T01:01:47.527Z,101215.66
2023-04-18T01:02:53.465Z,101208.28
2023-04-18T01:03:56.507Z,101205.41
2023-04-18T01:05:00.309Z,101204.63
2023-04-18T01:06:03.138Z,101208.28
2023-04-18T01:07:06.878Z,101204.63
2023-04-18T01:08:09.240Z,101209.09
2023-04-18T01:09:14.149Z,101203.06
2023-04-18T01:10:16.803Z,101206.41
2023-04-18T01:11:20.427Z,101199.88
2023-04-18T01:12:23.946Z,101198.59
2023-04-18T01:13:27.761Z,101202.09
2023-04-18T01:14:30.675Z,101196.78
2023-04-18T01:15:34.134Z,101199.13
2023-04-18T01:16:37.349Z,101190.56
2023-04-18T01:17:42.463Z,101197.88
2023-04-18T01:18:45.053Z,101196.09
2023-04-18T01:19:48.747Z,101191.31
2023-04-18T01:20:52.928Z,101198.50
2023-04-18T01:21:56.443Z,101196.38
2023-04-18T01:22:59.976Z,101190.31
2023-04-18T01:24:11.015Z,101185.81
2023-04-18T01:25:13.764Z,101187.66
2023-04-18T01:26:17.141Z,101190.88
2023-04-18T01:27:19.583Z,101189.00
2023-04-18T01:28:23.731Z,101190.09
2023-04-18T01:29:28.697Z,101189.88
2023-04-18T01:30:32.423Z,101189.00
2023-04-18T01:31:36.607Z,101185.97
2023-04-18T01:32:40.348Z,101186.56
2023-04-18T01:33:45.000Z,101186.91
2023-04-18T01:34:48.552Z,101181.56
2023-04-18T01:35:51.202Z,101188.84
2023-04-18T01:36:54.736Z,101180.59
2023-04-18T01:37:58.175Z,101180.44
2023-04-18T01:39:02.180Z,101180.31
2023-04-18T01:40:09.516Z,101187.28
2023-04-18T01:41:13.377Z,101177.06
2023-04-18T01:42:16.648Z,101169.28
2023-04-18T01:43:20.334Z,101176.44
2023-04-18T01:44:22.904Z,101180.59
2023-04-18T01:45:26.454Z,101175.34
2023-04-18T01:46:29.435Z,101179.34
2023-04-18T01:47:32.950Z,101181.19
2023-04-18T01:48:36.244Z,101185.56
2023-04-18T01:49:42.898Z,101173.56
2023-04-18T01:50:45.500Z,101174.66
2023-04-18T01:51:49.296Z,101175.25
2023-04-18T01:52:51.878Z,101171.56
2023-04-18T01:53:55.476Z,101180.81
2023-04-18T01:54:58.386Z,101172.44
2023-04-18T01:56:03.322Z,101175.25
2023-04-18T01:57:06.001Z,101178.09
2023-04-18T01:58:09.668Z,101176.31
2023-04-18T01:59:12.150Z,101182.19
2023-04-18T02:00:16.546Z,101171.63
2023-04-18T02:01:19.227Z,101175.47
2023-04-18T02:02:22.932Z,101173.47
2023-04-18T02:03:26.358Z,101177.69
2023-04-18T02:04:30.099Z,101170.59
2023-04-18T02:05:32.702Z,101170.31
2023-04-18T02:06:36.480Z,101178.38
2023-04-18T02:07:39.104Z,101170.28
2023-04-18T02:08:42.882Z,101171.66
2023-04-18T02:09:45.660Z,101171.88
2023-04-18T02:10:49.581Z,101170.06
2023-04-18T02:11:56.194Z,101174.03
2023-04-18T02:12:59.642Z,101169.69
2023-04-18T02:14:02.216Z,101174.63
2023-04-18T02:15:06.783Z,101173.34
2023-04-18T02:16:13.178Z,101172.56
2023-04-18T02:17:18.600Z,101165.34
2023-04-18T02:18:22.265Z,101169.84
2023-04-18T02:19:25.857Z,101168.88
2023-04-18T02:20:29.136Z,101167.03
2023-04-18T02:21:32.878Z,101178.47
2023-04-18T02:22:37.835Z,101171.25
2023-04-18T02:23:41.290Z,101168.44
2023-04-18T02:24:43.757Z,101173.66
2023-04-18T02:25:48.161Z,101168.47
2023-04-18T02:26:52.397Z,101171.53
2023-04-18T02:27:56.075Z,101169.00
2023-04-18T02:28:58.980Z,101161.16
2023-04-18T02:30:02.359Z,101168.31
2023-04-18T02:31:04.951Z,101167.00
2023-04-18T02:32:09.338Z,101165.81
2023-04-18T02:33:12.256Z,101162.19
2023-04-18T02:34:16.022Z,101165.72
2023-04-18T02:35:18.612Z,101162.34
2023-04-18T02:36:22.199Z,101159.47
2023-04-18T02:37:24.995Z,101157.94
2023-04-18T02:38:28.568Z,101161.25
2023-04-18T02:39:31.536Z,101157.44
2023-04-18T02:40:35.427Z,101157.41
2023-04-18T02:41:39.539Z,101159.13
2023-04-18T02:42:44.809Z,101156.25
2023-04-18T02:43:48.501Z,101160.66
2023-04-18T02:44:51.894Z,101157.78
2023-04-18T02:45:54.262Z,101152.59
2023-04-18T02:46:57.846Z,101151.00
2023-04-18T02:48:00.215Z,101153.91
2023-04-18T02:49:03.892Z,101158.25
2023-04-18T02:50:08.398Z,101148.53
2023-04-18T02:51:12.397Z,101152.59
2023-04-18T02:52:15.178Z,101149.09
2023-04-18T02:53:18.619Z,101159.69
2023-04-18T02:54:21.592Z,101152.44
2023-04-18T02:55:27.092Z,101155.75
2023-04-18T02:56:29.432Z,101150.28
2023-04-18T02:57:33.002Z,101149.94
2023-04-18T02:58:37.070Z,101151.53
2023-04-18T02:59:40.335Z,101147.16
2023-04-18T03:00:42.832Z,101147.16
2023-04-18T03:01:46.573Z,101143.28
2023-04-18T03:02:49.322Z,101148.41
2023-04-18T03:03:53.732Z,101141.97
2023-04-18T03:04:56.821Z,101144.59
2023-04-18T03:06:01.768Z,101143.25
2023-04-18T03:07:04.136Z,101137.78
2023-04-18T03:08:07.805Z,101144.53
2023-04-18T03:09:10.630Z,101145.88
2023-04-18T03:10:14.075Z,101152.19
2023-04-18T03:11:16.274Z,101141.06
2023-04-18T03:12:19.562Z,101142.00
2023-04-18T03:13:22.090Z,101144.78
2023-04-18T03:14:27.240Z,101145.97
2023-04-18T03:15:31.402Z,101150.06
2023-04-18T03:16:35.458Z,101146.69
2023-04-18T03:17:38.063Z,101146.88
2023-04-18T03:18:41.487Z,101144.59
2023-04-18T03:19:45.490Z,101146.25
2023-04-18T03:20:48.900Z,101148.47
2023-04-18T03:21:51.480Z,101150.78
2023-04-18T03:22:54.955Z,101149.59
2023-04-18T03:23:57.403Z,101144.81
2023-04-18T03:25:01.334Z,101145.78
2023-04-18T03:26:05.729Z,101145.16
2023-04-18T03:27:09.236Z,101147.91
2023-04-18T03:28:11.797Z,101142.19
2023-04-18T03:29:15.358Z,101147.69
2023-04-18T03:30:20.812Z,101147.22
2023-04-18T03:31:24.658Z,101137.22
2023-04-18T03:32:27.797Z,101137.31
2023-04-18T03:33:31.800Z,101147.94
2023-04-18T03:34:34.750Z,101141.00
2023-04-18T03:35:38.321Z,101142.59
2023-04-18T03:36:42.100Z,101130.47
2023-04-18T03:37:44.550Z,101133.91
2023-04-18T03:38:48.651Z,101134.94
2023-04-18T03:39:51.133Z,101138.03
2023-04-18T03:40:54.556Z,101131.66
2023-04-18T03:41:56.782Z,101140.34
2023-04-18T03:43:01.379Z,101137.31
2023-04-18T03:44:03.701Z,101132.19
2023-04-18T03:45:08.135Z,101131.75
2023-04-18T03:46:12.319Z,101131.53
2023-04-18T03:47:17.656Z,101129.19
2023-04-18T03:48:20.106Z,101127.56
2023-04-18T03:49:23.729Z,101127.06
2023-04-18T03:50:26.295Z,101119.28
2023-04-18T03:51:34.641Z,101120.19
2023-04-18T03:52:37.064Z,101127.13
2023-04-18T03:53:40.633Z,101119.34
2023-04-18T03:54:43.677Z,101128.25
2023-04-18T03:55:47.253Z,101123.09
2023-04-18T03:56:49.838Z,101117.50
2023-04-18T03:57:53.658Z,101124.81
2023-04-18T03:58:56.000Z,101129.31
2023-04-18T03:59:59.523Z,101122.66
2023-04-18T04:01:02.068Z,101118.13
2023-04-18T04:02:08.214Z,101127.63
2023-04-18T04:03:29.385Z,101121.66
2023-04-18T04:04:44.988Z,101120.81
2023-04-18T04:05:47.784Z,101124.13
2023-04-18T04:06:51.853Z,101123.94
2023-04-18T04:07:55.535Z,101122.69
2023-04-18T04:08:59.465Z,101122.72
2023-04-18T04:10:02.397Z,101121.34
2023-04-18T04:11:06.389Z,101117.94
2023-04-18T04:12:09.996Z,101124.97
2023-04-18T04:13:13.695Z,101124.50
2023-04-18T04:14:16.359Z,101123.94
2023-04-18T04:15:19.843Z,101129.69
2023-04-18T04:16:22.468Z,101125.72
2023-04-18T04:17:28.123Z,101126.53
2023-04-18T04:18:31.415Z,101124.75
2023-04-18T04:19:35.537Z,101129.94
2023-04-18T04:20:37.950Z,101122.81
2023-04-18T04:21:41.439Z,101128.91
2023-04-18T04:22:43.707Z,101124.09
2023-04-18T04:23:48.411Z,101119.66
2023-04-18T04:24:50.897Z,101120.84
2023-04-18T04:25:54.739Z,101129.59
2023-04-18T04:26:57.444Z,101126.72
2023-04-18T04:28:01.554Z,101126.16
2023-04-18T04:29:04.018Z,101124.81
2023-04-18T04:30:09.544Z,101128.19
2023-04-18T04:31:12.750Z,101124.50
2023-04-18T04:32:16.991Z,101135.16
2023-04-18T04:33:25.220Z,101129.63
2023-04-18T04:34:28.730Z,101128.16
2023-04-18T04:35:35.426Z,101131.63
2023-04-18T04:36:37.942Z,101132.72
2023-04-18T04:37:41.703Z,101135.66
2023-04-18T04:38:44.643Z,101124.88
2023-04-18T04:39:48.060Z,101123.28
2023-04-18T04:40:51.121Z,101128.03
2023-04-18T04:41:54.679Z,101127.28
2023-04-18T04:42:57.151Z,101134.38
2023-04-18T04:44:02.029Z,101131.22
2023-04-18T04:45:05.254Z,101133.84
2023-04-18T04:46:08.967Z,101130.13
2023-04-18T04:47:11.654Z,101125.50
2023-04-18T04:48:15.133Z,101126.81
2023-04-18T04:49:19.104Z,101137.56
2023-04-18T04:50:22.698Z,101127.84
2023-04-18T04:51:25.173Z,101134.94
2023-04-18T04:52:28.644Z,101128.81
2023-04-18T04:53:31.328Z,101133.22
2023-04-18T04:54:34.960Z,101133.72
2023-04-18T04:55:38.928Z,101138.41
2023-04-18T04:56:42.500Z,101134.25
2023-04-18T04:57:45.258Z,101136.75
2023-04-18T04:58:48.873Z,101137.84
2023-04-18T04:59:51.500Z,101138.91
2023-04-18T05:00:55.088Z,101135.50
2023-04-18T05:01:57.725Z,101139.56
2023-04-18T05:03:02.675Z,101138.78
2023-04-18T05:04:06.209Z,101133.22
2023-04-18T05:05:11.795Z,101136.00
2023-04-18T05:06:14.358Z,101143.72
2023-04-18T05:07:18.427Z,101138.59
2023-04-18T05:08:20.982Z,101140.81
2023-04-18T05:09:24.661Z,101141.22
2023-04-18T05:10:27.366Z,101140.94
2023-04-18T05:11:31.044Z,101144.25
2023-04-18T05:12:33.752Z,101146.72
2023-04-18T05:13:37.312Z,101144.22
2023-04-18T05:14:40.031Z,101139.88
2023-04-18T05:15:43.442Z,101145.47
2023-04-18T05:16:45.726Z,101142.41
2023-04-18T05:17:49.604Z,101148.13
2023-04-18T05:18:53.290Z,101148.16
2023-04-18T05:19:56.792Z,101144.50
2023-04-18T05:21:00.729Z,101149.28
2023-04-18T05:22:04.118Z,101139.56
2023-04-18T05:23:06.641Z,101149.91
2023-04-18T05:24:10.551Z,101152.25
2023-04-18T05:25:12.995Z,101159.13
2023-04-18T05:26:16.879Z,101151.84
2023-04-18T05:27:19.249Z,101153.09
2023-04-18T05:28:25.097Z,101158.94
2023-04-18T05:29:28.478Z,101153.03
2023-04-18T05:30:31.048Z,101154.91
2023-04-18T05:31:34.530Z,101153.78
2023-04-18T05:32:39.128Z,101161.69
2023-04-18T05:33:42.514Z,101160.75
2023-04-18T05:34:44.791Z,101167.34
2023-04-18T05:35:48.178Z,101163.13
2023-04-18T05:36:53.361Z,101167.53
2023-04-18T05:37:55.685Z,101164.34
2023-04-18T05:38:59.014Z,101168.91
2023-04-18T05:40:01.327Z,101166.34
2023-04-18T05:41:04.793Z,101163.88
2023-04-18T05:42:07.948Z,101168.31
2023-04-18T05:43:11.524Z,101170.25
2023-04-18T05:44:13.746Z,101171.75
2023-04-18T05:45:17.388Z,101175.47
2023-04-18T05:46:19.942Z,101172.44
2023-04-18T05:47:24.391Z,101175.84
2023-04-18T05:48:27.651Z,101182.72
2023-04-18T05:49:31.082Z,101174.22
2023-04-18T05:50:33.382Z,101177.78
2023-04-18T05:51:36.648Z,101172.25
2023-04-18T05:52:41.441Z,101177.38
2023-04-18T05:53:43.800Z,101182.94
2023-04-18T05:54:47.134Z,101183.09
2023-04-18T05:55:50.456Z,101181.03
2023-04-18T05:56:53.788Z,101184.88
2023-04-18T05:57:56.576Z,101188.31
2023-04-18T05:59:00.383Z,101184.44
2023-04-18T06:00:04.181Z,101183.75
2023-04-18T06:01:07.942Z,101188.84
2023-04-18T06:02:13.662Z,101181.94
2023-04-18T06:03:17.530Z,101185.88
2023-04-18T06:04:20.696Z,101175.22
2023-04-18T06:05:24.821Z,101180.25
2023-04-18T06:06:27.730Z,101178.34
2023-04-18T06:07:31.219Z,101184.13
2023-04-18T06:08:36.009Z,101182.97
2023-04-18T06:09:39.417Z,101184.00
2023-04-18T06:10:41.883Z,101185.13
2023-04-18T06:11:45.705Z,101184.41
2023-04-18T06:12:47.918Z,101181.59
2023-04-18T06:13:51.572Z,101180.91
2023-04-18T06:14:54.044Z,101183.16
2023-04-18T06:15:58.265Z,101180.38
2023-04-18T06:17:00.805Z,101189.13
2023-04-18T06:18:04.700Z,101174.38
2023-04-18T06:19:07.502Z,101187.22
2023-04-18T06:20:12.039Z,101186.56
2023-04-18T06:21:15.487Z,101184.09
2023-04-18T06:22:18.153Z,101180.19
2023-04-18T06:23:21.744Z,101191.72
2023-04-18T06:24:25.836Z,101179.66
2023-04-18T06:25:29.299Z,101178.63
2023-04-18T06:26:32.279Z,101183.53
2023-04-18T06:27:35.872Z,101178.88
2023-04-18T06:28:39.704Z,101181.25
2023-04-18T06:29:43.385Z,101183.94
2023-04-18T06:30:46.850Z,101185.06
2023-04-18T06:31:52.331Z,101186.88
2023-04-18T06:32:56.086Z,101191.91
2023-04-18T06:33:59.706Z,101189.09
2023-04-18T06:35:03.577Z,101188.88
2023-04-18T06:36:09.110Z,101191.16
2023-04-18T06:37:11.972Z,101191.94
2023-04-18T06:38:15.514Z,101187.41
2023-04-18T06:39:19.466Z,101196.88
2023-04-18T06:40:24.383Z,101186.03
2023-04-18T06:41:27.982Z,101187.03
2023-04-18T06:42:31.622Z,101190.28
2023-04-18T06:43:35.989Z,101196.22
2023-04-18T06:44:39.972Z,101189.22
2023-04-18T06:45:43.650Z,101190.00
2023-04-18T06:46:48.357Z,101187.09
2023-04-18T06:47:52.627Z,101188.75
2023-04-18T06:48:56.593Z,101195.88
2023-04-18T06:49:58.951Z,101192.22
2023-04-18T06:51:02.304Z,101190.94
2023-04-18T06:52:05.148Z,101198.94
2023-04-18T06:53:08.501Z,101193.41
2023-04-18T06:54:11.761Z,101206.88
2023-04-18T06:55:15.781Z,101203.16
2023-04-18T06:56:20.902Z,101206.88
2023-04-18T06:57:24.683Z,101203.16
2023-04-18T06:58:27.311Z,101203.50
2023-04-18T06:59:31.329Z,101204.28
2023-04-18T07:00:34.846Z,101202.19
2023-04-18T07:01:41.569Z,101210.38
2023-04-18T07:02:45.402Z,101210.25
2023-04-18T07:03:48.128Z,101206.97
2023-04-18T07:04:52.064Z,101203.78
2023-04-18T07:05:55.776Z,101203.19
2023-04-18T07:06:59.394Z,101208.63
2023-04-18T07:08:01.566Z,101202.97
2023-04-18T07:09:05.117Z,101204.75
2023-04-18T07:10:11.607Z,101212.63
2023-04-18T07:11:15.832Z,101207.88
2023-04-18T07:12:20.969Z,101205.03
2023-04-18T07:13:24.403Z,101206.16
2023-04-18T07:14:27.364Z,101208.81
2023-04-18T07:15:31.167Z,101211.97
2023-04-18T07:16:33.835Z,101205.16
2023-04-18T07:17:37.531Z,101214.50
2023-04-18T07:18:40.125Z,101212.66
2023-04-18T07:19:43.743Z,101202.94
2023-04-18T07:20:46.306Z,101205.84
2023-04-18T07:21:49.954Z,101204.81
2023-04-18T07:22:53.551Z,101204.53
2023-04-18T07:23:55.794Z,101205.88
2023-04-18T07:24:59.622Z,101201.06
2023-04-18T07:26:02.893Z,101202.78
2023-04-18T07:27:06.819Z,101213.38
2023-04-18T07:28:10.718Z,101210.38
2023-04-18T07:29:14.075Z,101207.25
2023-04-18T07:30:17.570Z,101200.88
2023-04-18T07:31:19.950Z,101199.50
2023-04-18T07:32:23.357Z,101205.34
2023-04-18T07:33:26.287Z,101202.94
2023-04-18T07:34:29.954Z,101197.69
2023-04-18T07:35:34.213Z,101198.03
2023-04-18T07:36:39.157Z,101201.53
2023-04-18T07:37:42.115Z,101196.25
2023-04-18T07:38:46.733Z,101202.38
2023-04-18T07:39:49.703Z,101197.81
2023-04-18T07:40:58.527Z,101194.09
2023-04-18T07:42:02.533Z,101194.44
2023-04-18T07:43:06.017Z,101205.28
2023-04-18T07:44:09.744Z,101206.94
2023-04-18T07:45:13.415Z,101213.66
2023-04-18T07:46:15.814Z,101211.16
2023-04-18T07:47:22.367Z,101206.72
2023-04-18T07:48:27.256Z,101207.34
2023-04-18T07:49:30.634Z,101204.63
2023-04-18T07:50:32.933Z,101207.50
2023-04-18T07:51:36.329Z,101210.88
2023-04-18T07:52:40.067Z,101216.19
2023-04-18T07:53:43.767Z,101208.16
2023-04-18T07:54:47.354Z,101208.59
2023-04-18T07:55:51.169Z,101210.41
2023-04-18T07:56:54.506Z,101209.94
2023-04-18T07:57:58.002Z,101212.22
2023-04-18T07:59:01.830Z,101209.28
2023-04-18T08:00:08.184Z,101217.78
2023-04-18T08:01:14.207Z,101218.16
2023-04-18T08:02:17.572Z,101215.09
2023-04-18T08:03:20.100Z,101214.94
2023-04-18T08:04:24.371Z,101212.78
2023-04-18T08:05:28.623Z,101221.44
2023-04-18T08:06:32.153Z,101216.03
2023-04-18T08:07:35.508Z,101218.66
2023-04-18T08:08:38.863Z,101215.38
2023-04-18T08:09:42.826Z,101210.66
2023-04-18T08:10:46.432Z,101222.22
2023-04-18T08:11:48.797Z,101221.19
2023-04-18T08:12:52.214Z,101223.31
2023-04-18T08:13:54.626Z,101224.09
2023-04-18T08:14:58.261Z,101228.84
2023-04-18T08:16:03.439Z,101228.56
2023-04-18T08:17:06.823Z,101227.53
2023-04-18T08:18:09.099Z,101223.78
2023-04-18T08:19:12.715Z,101231.16
2023-04-18T08:20:16.778Z,101228.00
2023-04-18T08:21:20.260Z,101228.47
2023-04-18T08:22:22.519Z,101234.22
2023-04-18T08:23:25.830Z,101227.31
2023-04-18T08:24:29.114Z,101231.06
2023-04-18T08:25:33.629Z,101227.16
2023-04-18T08:26:37.041Z,101224.91
2023-04-18T08:27:39.786Z,101225.19
2023-04-18T08:28:45.964Z,101218.63
2023-04-18T08:29:50.276Z,101221.56
2023-04-18T08:30:55.600Z,101229.97
2023-04-18T08:32:00.918Z,101228.47
2023-04-18T08:33:05.692Z,101226.09
2023-04-18T08:34:09.131Z,101235.09
2023-04-18T08:35:11.549Z,101230.31
2023-04-18T08:36:15.138Z,101231.94
2023-04-18T08:37:18.585Z,101239.28
2023-04-18T08:38:22.630Z,101234.16
2023-04-18T08:39:25.542Z,101241.06
2023-04-18T08:40:30.431Z,101236.78
2023-04-18T08:41:37.851Z,101234.44
2023-04-18T08:42:44.979Z,101239.00
2023-04-18T08:43:49.741Z,101238.50
2023-04-18T08:44:52.808Z,101235.78
2023-04-18T08:46:00.673Z,101235.00
2023-04-18T08:47:06.308Z,101237.97
2023-04-18T08:48:14.100Z,101241.41
2023-04-18T08:49:17.670Z,101239.47
2023-04-18T08:50:19.908Z,101235.59
2023-04-18T08:51:23.478Z,101237.16
2023-04-18T08:52:27.254Z,101239.44
2023-04-18T08:53:32.748Z,101241.13
2023-04-18T08:54:38.194Z,101240.25
2023-04-18T08:55:42.130Z,101238.97
2023-04-18T08:56:45.643Z,101238.38
2023-04-18T08:57:48.047Z,101249.84
2023-04-18T08:58:52.367Z,101242.22
2023-04-18T08:59:55.529Z,101243.84
2023-04-18T09:00:58.905Z,101248.09
2023-04-18T09:02:03.001Z,101247.00
2023-04-18T09:03:08.096Z,101246.50
2023-04-18T09:04:11.157Z,101247.97
2023-04-18T09:05:16.370Z,101250.34
2023-04-18T09:06:20.673Z,101250.13
2023-04-18T09:07:30.109Z,101253.31
2023-04-18T09:08:35.547Z,101250.13
2023-04-18T09:09:47.417Z,101249.63
2023-04-18T09:10:50.797Z,101253.91
2023-04-18T09:11:53.260Z,101245.34
2023-04-18T09:12:57.802Z,101247.81
2023-04-18T09:14:02.644Z,101244.41
2023-04-18T09:15:14.540Z,101246.25
2023-04-18T09:16:19.689Z,101250.50
2023-04-18T09:17:34.529Z,101245.22
2023-04-18T09:18:39.422Z,101245.50
2023-04-18T09:19:50.389Z,101252.13
2023-04-18T09:20:55.216Z,101252.34
2023-04-18T09:21:59.227Z,101257.63
2023-04-18T09:23:03.976Z,101248.91
2023-04-18T09:24:18.400Z,101250.50
2023-04-18T09:25:30.637Z,101256.31
2023-04-18T09:26:37.158Z,101257.38
2023-04-18T09:27:41.250Z,101251.53
2023-04-18T09:28:44.865Z,101256.03
2023-04-18T09:29:52.016Z,101258.66
2023-04-18T09:30:56.659Z,101254.91
2023-04-18T09:32:01.288Z,101254.06
2023-04-18T09:33:07.761Z,101250.06
2023-04-18T09:34:21.379Z,101261.50
2023-04-18T09:35:27.114Z,101253.34
2023-04-18T09:36:31.474Z,101248.84
2023-04-18T09:37:35.537Z,101242.50
2023-04-18T09:38:42.541Z,101251.16
2023-04-18T09:39:45.708Z,101248.00
2023-04-18T09:41:08.068Z,101248.44
2023-04-18T09:42:11.903Z,101257.50
2023-04-18T09:43:22.166Z,101262.03
2023-04-18T09:44:24.524Z,101258.63
2023-04-18T09:45:28.867Z,101263.41
2023-04-18T09:46:31.828Z,101266.69
2023-04-18T09:47:37.575Z,101261.53
2023-04-18T09:48:40.520Z,101261.03
2023-04-18T09:49:46.005Z,101262.66
2023-04-18T09:50:50.937Z,101255.28
2023-04-18T09:51:56.669Z,101258.31
2023-04-18T09:53:00.956Z,101253.47
2023-04-18T09:54:05.808Z,101249.16
2023-04-18T09:55:11.844Z,101256.97
2023-04-18T09:56:22.373Z,101260.59
2023-04-18T09:57:29.924Z,101268.00
2023-04-18T09:58:35.901Z,101269.38
2023-04-18T09:59:47.824Z,101259.19
2023-04-18T10:00:52.885Z,101259.19
2023-04-18T10:01:58.373Z,101261.69
2023-04-18T10:03:08.317Z,101258.09
2023-04-18T10:04:13.959Z,101258.13
2023-04-18T10:05:21.348Z,101265.84
2023-04-18T10:06:25.229Z,101262.91
2023-04-18T10:07:29.325Z,101260.56
2023-04-18T10:08:34.245Z,101267.69
2023-04-18T10:09:37.060Z,101268.47
2023-04-18T10:10:41.055Z,101265.28
2023-04-18T10:11:44.714Z,101264.97
2023-04-18T10:12:50.966Z,101266.50
2023-04-18T10:13:57.576Z,101271.25
2023-04-18T10:15:02.004Z,101262.66
2023-04-18T10:16:06.961Z,101271.53
2023-04-18T10:17:09.511Z,101271.50
2023-04-18T10:18:16.764Z,101263.63
2023-04-18T10:19:24.384Z,101265.66
2023-04-18T10:20:31.171Z,101267.75
2023-04-18T10:21:34.989Z,101265.66
2023-04-18T10:22:39.664Z,101269.59
2023-04-18T10:23:44.093Z,101266.41
2023-04-18T10:24:53.445Z,101269.69
2023-04-18T10:25:57.458Z,101262.31
2023-04-18T10:27:00.120Z,101257.06
2023-04-18T10:28:04.487Z,101262.03
2023-04-18T10:29:09.519Z,101259.41
2023-04-18T10:30:13.043Z,101265.22
2023-04-18T10:31:18.040Z,101264.47
2023-04-18T10:32:24.661Z,101268.69
2023-04-18T10:33:33.835Z,101256.28
2023-04-18T10:34:39.158Z,101260.50
2023-04-18T10:35:56.871Z,101263.94
2023-04-18T10:37:07.110Z,101262.13
2023-04-18T10:38:16.898Z,101258.47
2023-04-18T10:39:25.654Z,101261.91
2023-04-18T10:40:33.221Z,101264.25
2023-04-18T10:41:50.593Z,101270.28
2023-04-18T10:42:59.660Z,101261.91
2023-04-18T10:44:27.698Z,101265.03
2023-04-18T10:45:32.652Z,101258.97
2023-04-18T10:46:36.397Z,101265.31
2023-04-18T10:47:40.366Z,101263.75
2023-04-18T10:48:43.175Z,101256.06
2023-04-18T10:49:59.213Z,101261.06
2023-04-18T10:51:18.320Z,101263.81
2023-04-18T10:52:20.755Z,101260.97
2023-04-18T10:53:25.069Z,101258.97
2023-04-18T10:54:32.418Z,101261.25
2023-04-18T10:55:37.883Z,101261.41
2023-04-18T10:56:40.390Z,101253.44
2023-04-18T10:57:45.183Z,101252.88
2023-04-18T10:58:51.296Z,101252.91
2023-04-18T10:59:55.285Z,101246.78
2023-04-18T11:00:58.017Z,101251.06
2023-04-18T11:02:06.761Z,101251.94
2023-04-18T11:03:10.620Z,101253.44
2023-04-18T11:04:14.432Z,101252.34
2023-04-18T11:05:24.399Z,101253.63
2023-04-18T11:06:31.343Z,101255.03
2023-04-18T11:07:34.777Z,101249.88
2023-04-18T11:08:38.104Z,101248.75
2023-04-18T11:09:40.506Z,101247.56
2023-04-18T11:10:44.104Z,101247.00
2023-04-18T11:11:46.536Z,101246.81
2023-04-18T11:12:50.181Z,101242.19
2023-04-18T11:13:58.145Z,101251.53
2023-04-18T11:15:02.852Z,101244.72
2023-04-18T11:16:06.629Z,101245.09
2023-04-18T11:17:19.625Z,101242.69
2023-04-18T11:18:23.507Z,101250.63
2023-04-18T11:19:25.980Z,101243.66
2023-04-18T11:20:30.279Z,101249.81
2023-04-18T11:21:34.579Z,101238.78
2023-04-18T11:22:47.035Z,101244.09
2023-04-18T11:23:50.664Z,101240.13
2023-04-18T11:24:58.589Z,101245.44
2023-04-18T11:26:02.078Z,101247.38
2023-04-18T11:27:05.005Z,101237.94
2023-04-18T11:28:09.565Z,101235.97
2023-04-18T11:29:12.127Z,101240.47
2023-04-18T11:30:16.720Z,101241.22
2023-04-18T11:31:22.356Z,101239.47
2023-04-18T11:32:26.512Z,101239.28
2023-04-18T11:33:30.873Z,101244.22
2023-04-18T11:34:33.940Z,101236.03
2023-04-18T11:35:41.051Z,101240.13
2023-04-18T11:36:48.424Z,101236.47
2023-04-18T11:37:52.233Z,101245.94
2023-04-18T11:38:54.821Z,101239.09
2023-04-18T11:39:59.065Z,101240.44
2023-04-18T11:41:03.472Z,101241.53
2023-04-18T11:42:07.253Z,101236.22
2023-04-18T11:43:10.758Z,101242.56
2023-04-18T11:44:13.707Z,101237.44
2023-04-18T11:45:17.539Z,101247.84
2023-04-18T11:46:21.070Z,101240.72
2023-04-18T11:47:24.772Z,101233.91
2023-04-18T11:48:36.226Z,101232.84
2023-04-18T11:49:38.452Z,101230.06
2023-04-18T11:50:42.359Z,101230.66
2023-04-18T11:51:47.768Z,101230.38
2023-04-18T11:52:52.418Z,101227.13
2023-04-18T11:53:55.257Z,101232.16
2023-04-18T11:54:59.850Z,101230.69
2023-04-18T11:56:03.816Z,101227.84
2023-04-18T11:57:08.020Z,101231.91
2023-04-18T11:58:11.538Z,101228.50
2023-04-18T11:59:13.825Z,101222.50
2023-04-18T12:00:19.826Z,101223.56
2023-04-18T12:01:24.077Z,101222.47
2023-04-18T12:02:29.209Z,101222.41
2023-04-18T12:03:31.889Z,101216.28
2023-04-18T12:04:58.460Z,101222.06
2023-04-18T12:06:02.668Z,101221.16
2023-04-18T12:07:06.806Z,101221.09
2023-04-18T12:08:12.058Z,101225.84
2023-04-18T12:09:14.960Z,101223.56
2023-04-18T12:10:27.521Z,101220.53
2023-04-18T12:11:30.002Z,101225.47
2023-04-18T12:12:33.607Z,101224.16
2023-04-18T12:13:36.945Z,101216.63